Time,TemperatureF,DewpointF,PressureIn,WindDirection,WindDirectionDegrees,WindSpeedMPH,WindSpeedGustMPH,Humidity,HourlyPrecipIn,Conditions,Clouds,dailyrainin,SoftwareType,DateUTC
2013-01-12 00:08:00,31.8,30.8,29.86,South,190,3.0,3.0,96,0.00,,,0.00,Wunderground v.1.15,2013-01-12 05:08:00,
2013-01-12 00:18:00,31.8,30.8,29.85,South,180,3.0,4.0,96,0.00,,,0.00,Wunderground v.1.15,2013-01-12 05:18:00,
2013-01-12 00:28:00,31.8,30.8,29.85,South,190,4.0,4.0,96,0.00,,,0.00,Wunderground v.1.15,2013-01-12 05:28:00,
2013-01-12 00:38:00,31.9,30.9,29.86,South,186,5.0,7.0,96,0.00,,,0.00,Wunderground v.1.15,2013-01-12 05:38:00,
2013-01-12 00:48:00,31.9,30.9,29.85,South,186,3.0,3.0,96,0.00,,,0.00,Wunderground v.1.15,2013-01-12 05:48:00,
2013-01-12 00:58:00,32.0,31.0,29.85,South,178,1.0,2.0,96,0.00,,,0.00,Wunderground v.1.15,2013-01-12 05:58:00,
2013-01-12 01:08:00,32.0,31.0,29.85,South,184,2.0,2.0,96,0.00,,,0.00,Wunderground v.1.15,2013-01-12 06:08:00,
2013-01-12 01:17:00,32.1,31.1,29.85,South,175,0.0,0.0,96,0.00,,,0.00,Wunderground v.1.15,2013-01-12 06:17:00,
2013-01-12 01:28:00,32.2,31.2,29.86,South,178,1.0,1.0,96,0.00,,,0.00,Wunderground v.1.15,2013-01-12 06:28:00,
2013-01-12 01:37:00,32.3,31.3,29.86,South,175,1.0,1.0,96,0.00,,,0.00,Wunderground v.1.15,2013-01-12 06:37:00,
2013-01-12 01:48:00,32.3,31.3,29.85,SSW,200,1.0,1.0,96,0.00,,,0.00,Wunderground v.1.15,2013-01-12 06:48:00,
2013-01-12 01:57:00,32.3,31.3,29.86,South,175,1.0,1.0,96,0.00,,,0.00,Wunderground v.1.15,2013-01-12 06:57:00,
2013-01-12 02:08:00,32.3,31.3,29.85,South,188,1.0,9.0,96,0.00,,,0.00,Wunderground v.1.15,2013-01-12 07:08:00,
2013-01-12 02:18:00,32.3,31.3,29.85,South,170,1.0,1.0,96,0.00,,,0.00,Wunderground v.1.15,2013-01-12 07:18:00,
2013-01-12 02:27:00,32.4,31.4,29.85,South,175,2.0,3.0,96,0.00,,,0.00,Wunderground v.1.15,2013-01-12 07:27:00,
2013-01-12 02:38:00,32.5,31.5,29.84,South,180,3.0,3.0,96,0.00,,,0.00,Wunderground v.1.15,2013-01-12 07:38:00,
2013-01-12 02:47:00,32.5,31.5,29.84,SSW,201,3.0,3.0,96,0.00,,,0.00,Wunderground v.1.15,2013-01-12 07:47:00,
2013-01-12 02:58:00,32.6,31.6,29.85,SSW,201,2.0,3.0,96,0.00,,,0.00,Wunderground v.1.15,2013-01-12 07:58:00,
2013-01-12 03:08:00,32.7,31.7,29.84,SSW,201,3.0,7.0,96,0.00,,,0.00,Wunderground v.1.15,2013-01-12 08:08:00,
2013-01-12 03:18:00,32.7,31.7,29.84,South,171,3.0,3.0,96,0.00,,,0.00,Wunderground v.1.15,2013-01-12 08:18:00,
2013-01-12 03:28:00,32.7,31.7,29.84,South,180,3.0,3.0,96,0.00,,,0.00,Wunderground v.1.15,2013-01-12 08:28:00,
2013-01-12 03:38:00,32.8,31.8,29.83,SSW,192,4.0,6.0,96,0.00,,,0.00,Wunderground v.1.15,2013-01-12 08:38:00,
2013-01-12 03:48:00,32.8,31.8,29.83,SSW,193,6.0,6.0,96,0.00,,,0.00,Wunderground v.1.15,2013-01-12 08:48:00,
2013-01-12 03:58:00,32.7,31.7,29.83,South,191,5.0,7.0,96,0.00,,,0.00,Wunderground v.1.15,2013-01-12 08:58:00,
2013-01-12 04:08:00,32.7,31.7,29.84,South,176,5.0,7.0,96,0.00,,,0.01,Wunderground v.1.15,2013-01-12 09:08:00,
2013-01-12 04:18:00,32.7,31.7,29.83,SSE,155,3.0,3.0,96,0.00,,,0.01,Wunderground v.1.15,2013-01-12 09:18:00,
2013-01-12 04:28:00,32.6,31.6,29.82,South,175,4.0,4.0,96,0.00,,,0.01,Wunderground v.1.15,2013-01-12 09:28:00,
2013-01-12 04:38:00,32.7,31.7,29.82,South,185,6.0,9.0,96,0.00,,,0.01,Wunderground v.1.15,2013-01-12 09:38:00,
2013-01-12 04:47:00,32.8,31.8,29.83,South,178,5.0,8.0,96,0.00,,,0.01,Wunderground v.1.15,2013-01-12 09:47:00,
2013-01-12 04:58:00,32.8,31.8,29.83,SSE,159,5.0,5.0,96,0.00,,,0.01,Wunderground v.1.15,2013-01-12 09:58:00,
2013-01-12 05:08:00,32.8,31.8,29.83,South,189,4.0,4.0,96,0.00,,,0.01,Wunderground v.1.15,2013-01-12 10:08:00,
2013-01-12 05:18:00,32.8,32.0,29.82,South,183,4.0,6.0,97,0.00,,,0.01,Wunderground v.1.15,2013-01-12 10:18:00,
2013-01-12 05:28:00,32.8,32.0,29.83,South,191,5.0,5.0,97,0.00,,,0.01,Wunderground v.1.15,2013-01-12 10:28:00,
2013-01-12 05:38:00,32.8,32.0,29.83,South,182,3.0,3.0,97,0.00,,,0.01,Wunderground v.1.15,2013-01-12 10:38:00,
2013-01-12 05:48:00,32.8,32.0,29.84,SW,223,3.0,3.0,97,0.00,,,0.02,Wunderground v.1.15,2013-01-12 10:48:00,
2013-01-12 05:58:00,32.8,32.0,29.85,SSW,198,2.0,2.0,97,0.00,,,0.02,Wunderground v.1.15,2013-01-12 10:58:00,
2013-01-12 06:08:00,32.9,32.1,29.85,SSW,192,2.0,12.0,97,0.00,,,0.03,Wunderground v.1.15,2013-01-12 11:08:00,
2013-01-12 06:17:00,32.9,32.1,29.85,South,190,3.0,4.0,97,0.00,,,0.03,Wunderground v.1.15,2013-01-12 11:17:00,
2013-01-12 06:28:00,32.9,32.1,29.86,SSW,200,5.0,5.0,97,0.00,,,0.03,Wunderground v.1.15,2013-01-12 11:28:00,
2013-01-12 06:38:00,32.9,32.1,29.86,SSE,162,4.0,4.0,97,0.00,,,0.04,Wunderground v.1.15,2013-01-12 11:38:00,
2013-01-12 06:48:00,32.9,32.1,29.86,South,176,2.0,4.0,97,0.05,,,0.05,Wunderground v.1.15,2013-01-12 11:48:00,
2013-01-12 06:58:00,33.0,32.2,29.86,SSW,192,3.0,3.0,97,0.05,,,0.05,Wunderground v.1.15,2013-01-12 11:58:00,
2013-01-12 07:08:00,33.3,32.5,29.86,South,180,5.0,10.0,97,0.00,,,0.05,Wunderground v.1.15,2013-01-12 12:08:00,
2013-01-12 07:18:00,33.3,32.5,29.86,South,180,5.0,6.0,97,0.00,,,0.06,Wunderground v.1.15,2013-01-12 12:18:00,
2013-01-12 07:28:00,33.2,32.4,29.85,SSW,205,5.0,5.0,97,0.00,,,0.06,Wunderground v.1.15,2013-01-12 12:28:00,
2013-01-12 07:38:00,33.3,32.5,29.86,South,184,5.0,8.0,97,0.00,,,0.07,Wunderground v.1.15,2013-01-12 12:38:00,
2013-01-12 07:48:00,33.4,32.6,29.87,SW,215,5.0,6.0,97,0.00,,,0.07,Wunderground v.1.15,2013-01-12 12:48:00,
2013-01-12 07:58:00,33.3,32.5,29.88,South,189,3.0,3.0,97,0.00,,,0.07,Wunderground v.1.15,2013-01-12 12:58:00,
2013-01-12 08:08:00,33.3,32.5,29.88,South,186,2.0,8.0,97,0.00,,,0.08,Wunderground v.1.15,2013-01-12 13:08:00,
2013-01-12 08:18:00,33.3,32.5,29.87,SSW,211,2.0,2.0,97,0.00,,,0.08,Wunderground v.1.15,2013-01-12 13:18:00,
2013-01-12 08:28:00,33.3,32.5,29.86,ESE,123,1.0,1.0,97,0.00,,,0.08,Wunderground v.1.15,2013-01-12 13:28:00,
2013-01-12 08:38:00,33.3,32.5,29.86,South,184,2.0,5.0,97,0.00,,,0.08,Wunderground v.1.15,2013-01-12 13:38:00,
2013-01-12 08:48:00,33.4,32.6,29.87,SW,216,4.0,4.0,97,0.00,,,0.09,Wunderground v.1.15,2013-01-12 13:48:00,
2013-01-12 08:58:00,33.4,32.6,29.86,SSW,209,3.0,4.0,97,0.00,,,0.09,Wunderground v.1.15,2013-01-12 13:58:00,
2013-01-12 09:08:00,33.5,32.7,29.86,South,184,2.0,10.0,97,0.00,,,0.09,Wunderground v.1.15,2013-01-12 14:08:00,
2013-01-12 09:18:00,33.8,33.0,29.86,South,180,3.0,4.0,97,0.00,,,0.09,Wunderground v.1.15,2013-01-12 14:18:00,
2013-01-12 09:28:00,33.9,33.1,29.86,South,191,3.0,3.0,97,0.00,,,0.10,Wunderground v.1.15,2013-01-12 14:28:00,
2013-01-12 09:38:00,34.1,33.3,29.86,South,178,4.0,7.0,97,0.00,,,0.10,Wunderground v.1.15,2013-01-12 14:38:00,
2013-01-12 09:47:00,34.3,33.5,29.86,South,188,4.0,4.0,97,0.00,,,0.10,Wunderground v.1.15,2013-01-12 14:47:00,
2013-01-12 09:58:00,34.3,33.5,29.86,SW,215,4.0,4.0,97,0.00,,,0.11,Wunderground v.1.15,2013-01-12 14:58:00,
2013-01-12 10:08:00,34.4,33.6,29.86,SSW,209,3.0,7.0,97,0.00,,,0.11,Wunderground v.1.15,2013-01-12 15:08:00,
2013-01-12 10:18:00,34.5,33.7,29.86,South,184,3.0,3.0,97,0.00,,,0.11,Wunderground v.1.15,2013-01-12 15:18:00,
2013-01-12 10:28:00,34.6,33.8,29.85,South,175,3.0,3.0,97,0.00,,,0.12,Wunderground v.1.15,2013-01-12 15:28:00,
2013-01-12 10:38:00,34.5,33.7,29.84,South,175,3.0,3.0,97,0.00,,,0.12,Wunderground v.1.15,2013-01-12 15:38:00,
2013-01-12 10:48:00,34.8,34.0,29.83,SW,229,3.0,5.0,97,0.00,,,0.13,Wunderground v.1.15,2013-01-12 15:48:00,
2013-01-12 10:57:00,35.1,34.3,29.82,SSW,196,4.0,7.0,97,0.00,,,0.13,Wunderground v.1.15,2013-01-12 15:57:00,
2013-01-12 11:08:00,35.3,34.5,29.83,SW,236,4.0,7.0,97,0.00,,,0.13,Wunderground v.1.15,2013-01-12 16:08:00,
2013-01-12 11:18:00,35.5,34.7,29.82,SSW,201,4.0,4.0,97,0.00,,,0.14,Wunderground v.1.15,2013-01-12 16:18:00,
2013-01-12 11:28:00,35.6,34.8,29.82,South,188,4.0,4.0,97,0.00,,,0.14,Wunderground v.1.15,2013-01-12 16:28:00,
2013-01-12 11:38:00,35.6,34.6,29.81,SSW,206,4.0,4.0,96,0.00,,,0.15,Wunderground v.1.15,2013-01-12 16:38:00,
2013-01-12 11:48:00,35.8,34.8,29.80,SSW,202,2.0,4.0,96,0.00,,,0.15,Wunderground v.1.15,2013-01-12 16:48:00,
2013-01-12 11:58:00,36.0,35.2,29.81,SSW,200,3.0,3.0,97,0.00,,,0.15,Wunderground v.1.15,2013-01-12 16:58:00,
2013-01-12 12:07:00,36.1,35.1,29.81,South,181,4.0,4.0,96,0.00,,,0.16,Wunderground v.1.15,2013-01-12 17:07:00,
2013-01-12 12:18:00,36.0,35.0,29.80,South,182,4.0,6.0,96,0.00,,,0.16,Wunderground v.1.15,2013-01-12 17:18:00,
2013-01-12 12:28:00,36.0,35.0,29.80,South,191,5.0,5.0,96,0.00,,,0.17,Wunderground v.1.15,2013-01-12 17:28:00,
2013-01-12 12:38:00,36.0,35.0,29.80,South,179,5.0,6.0,96,0.00,,,0.17,Wunderground v.1.15,2013-01-12 17:38:00,
2013-01-12 12:48:00,36.1,35.1,29.80,South,186,4.0,4.0,96,0.00,,,0.18,Wunderground v.1.15,2013-01-12 17:48:00,
2013-01-12 12:58:00,36.2,35.2,29.80,South,182,4.0,8.0,96,0.00,,,0.18,Wunderground v.1.15,2013-01-12 17:58:00,
2013-01-12 13:08:00,36.0,35.0,29.80,South,180,7.0,7.0,96,0.00,,,0.19,Wunderground v.1.15,2013-01-12 18:08:00,
2013-01-12 13:18:00,35.9,34.9,29.80,South,179,3.0,7.0,96,0.00,,,0.19,Wunderground v.1.15,2013-01-12 18:18:00,
2013-01-12 13:28:00,36.0,35.2,29.81,South,181,6.0,6.0,97,0.00,,,0.19,Wunderground v.1.15,2013-01-12 18:28:00,
2013-01-12 13:38:00,36.1,35.3,29.80,South,180,4.0,5.0,97,0.00,,,0.19,Wunderground v.1.15,2013-01-12 18:38:00,
2013-01-12 13:48:00,36.3,35.3,29.80,South,178,4.0,5.0,96,0.00,,,0.19,Wunderground v.1.15,2013-01-12 18:48:00,
2013-01-12 13:58:00,36.3,35.5,29.79,South,173,6.0,7.0,97,0.00,,,0.19,Wunderground v.1.15,2013-01-12 18:58:00,
2013-01-12 14:08:00,36.4,35.6,29.80,SSW,195,7.0,10.0,97,0.00,,,0.20,Wunderground v.1.15,2013-01-12 19:08:00,
2013-01-12 14:18:00,36.7,35.7,29.80,South,186,5.0,7.0,96,0.00,,,0.20,Wunderground v.1.15,2013-01-12 19:18:00,
2013-01-12 14:28:00,36.8,35.8,29.81,South,184,5.0,7.0,96,0.00,,,0.20,Wunderground v.1.15,2013-01-12 19:28:00,
2013-01-12 14:38:00,36.8,35.8,29.81,South,190,6.0,6.0,96,0.00,,,0.20,Wunderground v.1.15,2013-01-12 19:38:00,
2013-01-12 14:48:00,36.8,35.8,29.81,South,188,6.0,6.0,96,0.00,,,0.21,Wunderground v.1.15,2013-01-12 19:48:00,
2013-01-12 14:58:00,36.9,35.9,29.81,SE,140,5.0,5.0,96,0.00,,,0.21,Wunderground v.1.15,2013-01-12 19:58:00,
2013-01-12 15:08:00,37.0,36.2,29.81,SSE,167,1.0,13.0,97,0.00,,,0.21,Wunderground v.1.15,2013-01-12 20:08:00,
2013-01-12 15:17:00,36.8,35.8,29.81,SSW,192,2.0,2.0,96,0.00,,,0.21,Wunderground v.1.15,2013-01-12 20:17:00,
2013-01-12 15:28:00,36.9,36.1,29.81,South,178,4.0,4.0,97,0.00,,,0.21,Wunderground v.1.15,2013-01-12 20:28:00,
2013-01-12 15:38:00,36.9,36.1,29.81,South,173,4.0,4.0,97,0.00,,,0.21,Wunderground v.1.15,2013-01-12 20:38:00,
2013-01-12 15:47:00,36.7,35.9,29.80,South,184,4.0,4.0,97,0.00,,,0.21,Wunderground v.1.15,2013-01-12 20:47:00,
2013-01-12 15:58:00,36.6,35.8,29.80,South,188,6.0,6.0,97,0.00,,,0.21,Wunderground v.1.15,2013-01-12 20:58:00,
2013-01-12 16:08:00,36.6,35.8,29.80,SSW,193,5.0,12.0,97,0.00,,,0.21,Wunderground v.1.15,2013-01-12 21:08:00,
2013-01-12 16:18:00,36.5,35.7,29.80,South,190,6.0,8.0,97,0.00,,,0.21,Wunderground v.1.15,2013-01-12 21:18:00,
2013-01-12 16:28:00,36.3,35.5,29.80,South,176,5.0,8.0,97,0.00,,,0.21,Wunderground v.1.15,2013-01-12 21:28:00,
2013-01-12 16:38:00,36.3,35.5,29.80,South,186,6.0,6.0,97,0.00,,,0.21,Wunderground v.1.15,2013-01-12 21:38:00,
2013-01-12 16:47:00,36.3,35.5,29.80,South,185,5.0,5.0,97,0.00,,,0.21,Wunderground v.1.15,2013-01-12 21:47:00,
2013-01-12 16:58:00,36.2,35.4,29.79,South,189,5.0,5.0,97,0.00,,,0.21,Wunderground v.1.15,2013-01-12 21:58:00,
2013-01-12 17:08:00,36.2,35.4,29.79,SSW,195,5.0,10.0,97,0.00,,,0.21,Wunderground v.1.15,2013-01-12 22:08:00,
2013-01-12 17:18:00,36.0,35.2,29.79,SSW,205,4.0,4.0,97,0.00,,,0.21,Wunderground v.1.15,2013-01-12 22:18:00,
2013-01-12 17:28:00,36.1,35.3,29.80,SSW,202,4.0,4.0,97,0.00,,,0.21,Wunderground v.1.15,2013-01-12 22:28:00,
2013-01-12 17:38:00,36.3,35.5,29.80,South,188,4.0,5.0,97,0.00,,,0.21,Wunderground v.1.15,2013-01-12 22:38:00,
2013-01-12 17:48:00,36.2,35.4,29.81,South,187,1.0,1.0,97,0.00,,,0.21,Wunderground v.1.15,2013-01-12 22:48:00,
2013-01-12 17:58:00,36.1,35.3,29.80,SE,132,0.0,1.0,97,0.00,,,0.21,Wunderground v.1.15,2013-01-12 22:58:00,
2013-01-12 18:08:00,36.1,35.3,29.80,South,186,3.0,9.0,97,0.00,,,0.21,Wunderground v.1.15,2013-01-12 23:08:00,
2013-01-12 18:18:00,36.1,35.3,29.81,SSW,207,3.0,3.0,97,0.00,,,0.21,Wunderground v.1.15,2013-01-12 23:18:00,
2013-01-12 18:28:00,36.1,35.3,29.81,SSW,193,3.0,3.0,97,0.00,,,0.21,Wunderground v.1.15,2013-01-12 23:28:00,
2013-01-12 18:38:00,36.2,35.4,29.80,SSW,196,2.0,2.0,97,0.00,,,0.21,Wunderground v.1.15,2013-01-12 23:38:00,
2013-01-12 18:48:00,36.2,35.4,29.80,SSW,210,2.0,3.0,97,0.00,,,0.21,Wunderground v.1.15,2013-01-12 23:48:00,
2013-01-12 18:58:00,36.6,35.8,29.80,South,176,4.0,4.0,97,0.00,,,0.21,Wunderground v.1.15,2013-01-12 23:58:00,
2013-01-12 19:08:00,36.5,35.7,29.80,South,178,3.0,3.0,97,0.00,,,0.21,Wunderground v.1.15,2013-01-13 00:08:00,
2013-01-12 19:18:00,36.5,35.7,29.80,South,181,2.0,2.0,97,0.00,,,0.21,Wunderground v.1.15,2013-01-13 00:18:00,
2013-01-12 19:28:00,36.2,35.4,29.80,SSW,200,2.0,2.0,97,0.00,,,0.21,Wunderground v.1.15,2013-01-13 00:28:00,
2013-01-12 19:37:00,36.4,35.6,29.79,South,185,3.0,3.0,97,0.00,,,0.21,Wunderground v.1.15,2013-01-13 00:37:00,
2013-01-12 19:48:00,36.5,35.7,29.79,South,191,3.0,3.0,97,0.00,,,0.21,Wunderground v.1.15,2013-01-13 00:48:00,
2013-01-12 19:58:00,36.6,35.8,29.80,South,186,3.0,3.0,97,0.00,,,0.21,Wunderground v.1.15,2013-01-13 00:58:00,
2013-01-12 20:08:00,36.4,35.6,29.80,South,181,2.0,2.0,97,0.00,,,0.21,Wunderground v.1.15,2013-01-13 01:08:00,
2013-01-12 20:18:00,36.4,35.6,29.80,SSW,200,2.0,3.0,97,0.00,,,0.21,Wunderground v.1.15,2013-01-13 01:18:00,
2013-01-12 20:28:00,36.4,35.6,29.80,SSW,192,2.0,2.0,97,0.00,,,0.21,Wunderground v.1.15,2013-01-13 01:28:00,
2013-01-12 20:38:00,36.4,35.6,29.80,SE,135,1.0,1.0,97,0.00,,,0.21,Wunderground v.1.15,2013-01-13 01:38:00,
2013-01-12 20:48:00,36.2,35.4,29.80,South,190,1.0,4.0,97,0.00,,,0.21,Wunderground v.1.15,2013-01-13 01:48:00,
2013-01-12 20:58:00,36.2,35.4,29.80,SW,214,1.0,3.0,97,0.00,,,0.21,Wunderground v.1.15,2013-01-13 01:58:00,
2013-01-12 21:08:00,36.2,35.4,29.80,South,190,3.0,7.0,97,0.00,,,0.21,Wunderground v.1.15,2013-01-13 02:08:00,
2013-01-12 21:18:00,36.2,35.4,29.80,SW,214,2.0,2.0,97,0.00,,,0.21,Wunderground v.1.15,2013-01-13 02:18:00,
2013-01-12 21:27:00,36.4,35.6,29.79,South,185,2.0,2.0,97,0.00,,,0.21,Wunderground v.1.15,2013-01-13 02:27:00,
2013-01-12 21:38:00,36.5,36.0,29.79,South,185,2.0,3.0,98,0.00,,,0.21,Wunderground v.1.15,2013-01-13 02:38:00,
2013-01-12 21:48:00,36.3,35.5,29.80,SSW,212,1.0,1.0,97,0.00,,,0.21,Wunderground v.1.15,2013-01-13 02:48:00,
2013-01-12 21:57:00,36.5,36.0,29.79,South,186,2.0,2.0,98,0.00,,,0.21,Wunderground v.1.15,2013-01-13 02:57:00,
2013-01-12 22:08:00,36.4,35.9,29.79,South,184,1.0,6.0,98,0.00,,,0.21,Wunderground v.1.15,2013-01-13 03:08:00,
2013-01-12 22:18:00,36.4,35.9,29.79,South,178,2.0,2.0,98,0.00,,,0.21,Wunderground v.1.15,2013-01-13 03:18:00,
2013-01-12 22:28:00,36.5,36.0,29.79,SW,215,3.0,3.0,98,0.00,,,0.21,Wunderground v.1.15,2013-01-13 03:28:00,
2013-01-12 22:37:00,36.3,35.5,29.81,SW,221,1.0,1.0,97,0.00,,,0.21,Wunderground v.1.15,2013-01-13 03:37:00,
2013-01-12 22:48:00,36.0,35.2,29.81,SW,221,0.0,0.0,97,0.00,,,0.21,Wunderground v.1.15,2013-01-13 03:48:00,
2013-01-12 22:58:00,35.9,35.1,29.82,SW,223,1.0,1.0,97,0.00,,,0.21,Wunderground v.1.15,2013-01-13 03:58:00,
2013-01-12 23:08:00,35.9,35.4,29.82,SW,214,1.0,1.0,98,0.00,,,0.21,Wunderground v.1.15,2013-01-13 04:08:00,
2013-01-12 23:17:00,35.9,35.4,29.82,SW,235,1.0,4.0,98,0.00,,,0.21,Wunderground v.1.15,2013-01-13 04:17:00,
2013-01-12 23:28:00,35.7,34.9,29.81,South,173,3.0,4.0,97,0.00,,,0.21,Wunderground v.1.15,2013-01-13 04:28:00,
2013-01-12 23:37:00,35.6,34.8,29.80,SW,221,2.0,2.0,97,0.00,,,0.21,Wunderground v.1.15,2013-01-13 04:37:00,
2013-01-12 23:48:00,35.3,34.8,29.80,WSW,242,2.0,2.0,98,0.00,,,0.21,Wunderground v.1.15,2013-01-13 04:48:00,
2013-01-12 23:58:00,35.5,34.7,29.80,South,190,1.0,2.0,97,0.00,,,0.21,Wunderground v.1.15,2013-01-13 04:58:00,